Time;durP1;ratioP1;P1;durP2;ratioP2;P2;SDS_P1;SDS_P2;PMS_P1;PMS_P2;Temp;Humidity;BMP_temperature;BMP_pressure;BME280_temperature;BME280_humidity;BME280_pressure;Samples;Min_cycle;Max_cycle;Signal;HPM_P1;HPM_P2
2021/03/16 00:01:55;;;;;;;5.85;2.60;;;4.40;99.90;;;;;;5000907;28;20224;-81
2021/03/16 00:04:21;;;;;;;2.63;2.38;;;4.40;99.90;;;;;;5000657;28;20677;-81
2021/03/16 00:06:48;;;;;;;3.90;3.60;;;4.40;99.90;;;;;;5001204;28;20235;-81
2021/03/16 00:09:14;;;;;;;3.40;3.10;;;4.40;99.90;;;;;;5000714;28;20212;-81
2021/03/16 00:11:40;;;;;;;2.58;2.38;;;4.40;99.90;;;;;;5000511;28;20212;-81
2021/03/16 00:14:07;;;;;;;2.35;2.15;;;4.40;99.90;;;;;;5001155;28;20214;-81
2021/03/16 00:16:33;;;;;;;4.10;2.67;;;4.40;99.90;;;;;;5000283;28;20673;-81
2021/03/16 00:19:00;;;;;;;4.85;3.10;;;4.50;99.90;;;;;;5000348;28;20222;-81
2021/03/16 00:21:26;;;;;;;7.93;2.40;;;4.50;99.90;;;;;;5000179;28;20229;-81
2021/03/16 00:23:52;;;;;;;4.20;2.45;;;4.40;99.90;;;;;;5000759;28;20209;-81
2021/03/16 00:26:19;;;;;;;4.15;3.05;;;4.40;99.90;;;;;;4999855;28;20219;-81
2021/03/16 00:28:45;;;;;;;8.35;2.65;;;4.50;99.90;;;;;;5000830;28;20573;-81
2021/03/16 00:31:11;;;;;;;5.70;2.78;;;4.50;99.90;;;;;;5000125;28;20223;-81
2021/03/16 00:33:37;;;;;;;3.22;2.60;;;4.50;99.90;;;;;;4999607;28;20214;-81
2021/03/16 00:36:05;;;;;;;3.92;3.35;;;4.40;99.90;;;;;;4999517;28;20208;-81
2021/03/16 00:38:31;;;;;;;2.75;2.33;;;4.40;99.90;;;;;;4999964;28;20215;-81
2021/03/16 00:40:59;;;;;;;6.75;3.30;;;4.40;99.90;;;;;;4999879;28;20720;-81
2021/03/16 00:43:26;;;;;;;2.55;2.35;;;4.50;99.90;;;;;;4999920;28;20211;-81
2021/03/16 00:45:52;;;;;;;6.75;2.35;;;4.40;99.90;;;;;;5000133;28;20577;-81
2021/03/16 00:48:19;;;;;;;6.85;3.40;;;4.30;99.90;;;;;;4999805;28;20227;-81
2021/03/16 00:50:45;;;;;;;3.85;3.42;;;4.30;99.90;;;;;;4999714;28;20234;-81
2021/03/16 00:53:13;;;;;;;3.50;3.15;;;4.30;99.90;;;;;;4998130;28;20215;-81
2021/03/16 00:55:39;;;;;;;3.92;3.60;;;4.30;99.90;;;;;;4999780;28;20215;-81
2021/03/16 00:58:05;;;;;;;5.57;2.78;;;4.20;99.90;;;;;;4999476;28;20251;-81
2021/03/16 01:00:31;;;;;;;2.50;2.30;;;4.20;99.90;;;;;;4999104;28;20732;-81
2021/03/16 01:02:58;;;;;;;4.47;2.50;;;4.20;99.90;;;;;;4999803;28;20208;-81
2021/03/16 01:05:24;;;;;;;3.05;1.85;;;4.10;99.90;;;;;;4999840;28;20291;-81
2021/03/16 01:07:51;;;;;;;4.78;2.85;;;4.10;99.90;;;;;;5000773;28;20275;-81
2021/03/16 01:10:20;;;;;;;6.68;2.38;;;4.10;99.90;;;;;;4999963;28;20228;-81
2021/03/16 01:12:47;;;;;;;2.83;2.63;;;4.00;99.90;;;;;;4998980;28;20210;-81
2021/03/16 01:15:13;;;;;;;3.25;2.65;;;3.90;99.90;;;;;;4999465;28;20267;-81
2021/03/16 01:17:40;;;;;;;4.80;2.92;;;3.90;99.90;;;;;;4999465;28;20242;-81
2021/03/16 01:20:10;;;;;;;3.38;2.38;;;3.90;99.90;;;;;;4999827;28;20234;-81
2021/03/16 01:22:36;;;;;;;3.47;2.67;;;3.80;99.90;;;;;;4998965;28;20215;-81
2021/03/16 01:25:03;;;;;;;3.70;2.30;;;3.80;99.90;;;;;;4998581;28;20630;-81
2021/03/16 01:27:30;;;;;;;3.08;2.70;;;3.90;99.90;;;;;;4999219;28;20588;-81
2021/03/16 01:29:57;;;;;;;6.22;3.45;;;3.90;99.90;;;;;;4998558;28;20227;-81
2021/03/16 01:32:23;;;;;;;2.80;2.60;;;3.80;99.90;;;;;;4998240;28;20761;-81
2021/03/16 01:34:49;;;;;;;3.15;2.85;;;3.80;99.90;;;;;;4998274;28;20215;-81
2021/03/16 01:37:15;;;;;;;3.13;2.83;;;3.80;99.90;;;;;;4998974;28;20210;-81
2021/03/16 01:39:43;;;;;;;2.35;2.25;;;3.90;99.90;;;;;;4998685;28;20220;-81
2021/03/16 01:42:10;;;;;;;2.60;2.35;;;3.90;99.90;;;;;;4998496;28;20348;-81
2021/03/16 01:44:38;;;;;;;3.17;2.88;;;3.90;99.90;;;;;;4998377;28;20210;-79
2021/03/16 01:47:05;;;;;;;3.30;2.90;;;4.00;99.90;;;;;;4997663;28;20208;-78
2021/03/16 01:49:31;;;;;;;3.85;2.33;;;4.00;99.90;;;;;;4998803;28;20218;-81
2021/03/16 01:51:58;;;;;;;3.28;2.97;;;4.00;99.90;;;;;;4998320;28;20220;-81
2021/03/16 01:54:24;;;;;;;8.40;2.88;;;3.90;99.90;;;;;;4998431;28;20207;-81
2021/03/16 01:56:51;;;;;;;5.15;3.28;;;3.90;99.90;;;;;;4998255;28;20219;-81
2021/03/16 01:59:18;;;;;;;6.05;3.03;;;3.90;99.90;;;;;;4998835;28;20562;-81
2021/03/16 02:01:45;;;;;;;3.75;2.80;;;3.80;99.90;;;;;;5000234;28;20235;-81
2021/03/16 02:04:12;;;;;;;3.10;2.80;;;3.90;99.90;;;;;;4998634;28;20236;-81
2021/03/16 02:06:46;;;;;;;4.40;2.85;;;3.80;99.90;;;;;;4999393;28;20208;-81
2021/03/16 02:09:19;;;;;;;2.40;2.20;;;3.80;99.90;;;;;;4998311;28;20205;-81
2021/03/16 02:11:50;;;;;;;3.40;2.63;;;3.70;99.90;;;;;;4999009;28;20677;-81
2021/03/16 02:14:22;;;;;;;4.85;2.53;;;3.70;99.90;;;;;;4999397;28;20208;-81
2021/03/16 02:16:56;;;;;;;3.40;2.80;;;3.70;99.90;;;;;;4998800;28;20632;-81
2021/03/16 02:19:38;;;;;;;5.50;2.80;;;3.70;99.90;;;;;;4997990;28;20214;-81
2021/03/16 02:22:05;;;;;;;4.60;3.05;;;3.70;99.90;;;;;;4998090;28;20226;-79
2021/03/16 02:24:55;;;;;;;2.08;1.85;;;3.70;99.90;;;;;;4998324;28;20319;-79
2021/03/16 02:27:25;;;;;;;5.32;3.05;;;3.70;99.90;;;;;;4998667;28;20206;-79
2021/03/16 02:29:55;;;;;;;3.03;2.72;;;3.70;99.90;;;;;;4997671;28;20228;-79
2021/03/16 02:32:26;;;;;;;3.97;3.55;;;3.60;99.90;;;;;;4997436;28;20202;-79
2021/03/16 02:34:55;;;;;;;3.63;2.53;;;3.70;99.90;;;;;;4997688;28;20208;-79
2021/03/16 02:37:24;;;;;;;4.55;2.90;;;3.70;99.90;;;;;;4997698;28;20207;-79
2021/03/16 02:39:52;;;;;;;3.00;2.70;;;3.70;99.90;;;;;;4997567;28;20237;-79
2021/03/16 02:42:20;;;;;;;3.65;2.20;;;3.70;99.90;;;;;;4997644;28;20242;-79
2021/03/16 02:44:48;;;;;;;3.25;2.95;;;3.60;99.90;;;;;;4998160;28;20221;-79
2021/03/16 02:47:15;;;;;;;3.67;3.00;;;3.70;99.90;;;;;;4997409;28;20209;-79
2021/03/16 02:49:44;;;;;;;5.80;3.75;;;3.70;99.90;;;;;;4997980;28;20232;-80
2021/03/16 02:52:12;;;;;;;3.20;3.00;;;3.70;99.90;;;;;;4997575;28;20204;-79
2021/03/16 02:54:39;;;;;;;5.00;2.80;;;3.60;99.90;;;;;;4998259;28;20204;-80
2021/03/16 02:57:06;;;;;;;3.90;2.92;;;3.60;99.90;;;;;;4997130;28;20215;-79
2021/03/16 02:59:35;;;;;;;3.33;3.13;;;3.60;99.90;;;;;;4997335;28;20216;-79
2021/03/16 03:02:03;;;;;;;3.45;2.80;;;3.60;99.90;;;;;;4997139;28;20219;-79
2021/03/16 03:04:31;;;;;;;7.13;3.70;;;3.60;99.90;;;;;;4997008;28;20217;-79
2021/03/16 03:06:59;;;;;;;5.22;2.50;;;3.60;99.90;;;;;;4998004;28;20208;-79
2021/03/16 03:09:25;;;;;;;3.78;3.45;;;3.60;99.90;;;;;;4997140;28;20213;-79
2021/03/16 03:11:52;;;;;;;6.75;3.90;;;3.60;99.90;;;;;;4996974;28;20210;-79
2021/03/16 03:14:18;;;;;;;6.55;3.22;;;3.50;99.90;;;;;;4997410;28;20260;-79
2021/03/16 03:16:44;;;;;;;2.45;2.25;;;3.50;99.90;;;;;;4999788;28;20209;-79
2021/03/16 03:19:10;;;;;;;3.33;2.78;;;3.50;99.90;;;;;;5002164;28;20206;-79
2021/03/16 03:21:44;;;;;;;4.55;2.55;;;3.40;99.90;;;;;;5001411;28;20239;-78
2021/03/16 03:24:13;;;;;;;6.93;2.88;;;3.50;99.90;;;;;;5002136;28;20213;-79
2021/03/16 03:26:46;;;;;;;5.10;3.08;;;3.50;99.90;;;;;;5001468;28;20214;-81
2021/03/16 03:29:15;;;;;;;3.30;2.55;;;3.50;99.90;;;;;;5000933;28;20205;-79
2021/03/16 03:31:45;;;;;;;3.70;2.40;;;3.40;99.90;;;;;;5001424;28;20214;-79
2021/03/16 03:34:12;;;;;;;2.65;2.47;;;3.40;99.90;;;;;;5001642;28;20210;-79
2021/03/16 03:36:43;;;;;;;5.43;3.95;;;3.40;99.90;;;;;;5001093;28;20223;-79
2021/03/16 03:39:11;;;;;;;3.10;2.90;;;3.30;99.90;;;;;;5000675;28;20210;-79
2021/03/16 03:41:38;;;;;;;4.28;2.30;;;3.30;99.90;;;;;;5000290;28;20701;-79
2021/03/16 03:44:09;;;;;;;3.55;2.55;;;3.30;99.90;;;;;;5000822;28;20219;-79
2021/03/16 03:46:38;;;;;;;5.65;3.38;;;3.30;99.90;;;;;;5000516;28;20213;-80
2021/03/16 03:49:05;;;;;;;2.83;2.65;;;3.30;99.90;;;;;;5001094;28;20208;-79
2021/03/16 03:51:37;;;;;;;3.05;2.72;;;3.30;99.90;;;;;;4999949;28;20235;-79
2021/03/16 03:54:05;;;;;;;2.88;2.10;;;3.20;99.90;;;;;;5000883;28;20209;-79
2021/03/16 03:56:34;;;;;;;8.82;3.35;;;3.20;99.90;;;;;;5001118;28;20223;-79
2021/03/16 03:59:03;;;;;;;2.80;1.95;;;3.20;99.90;;;;;;5000326;28;20204;-79
2021/03/16 04:01:31;;;;;;;4.90;2.65;;;3.20;99.90;;;;;;5000493;28;20242;-79
2021/03/16 04:03:57;;;;;;;2.90;2.60;;;3.20;99.90;;;;;;5000598;28;20705;-80
2021/03/16 04:06:25;;;;;;;6.22;2.08;;;3.20;99.90;;;;;;5000464;28;20205;-79
2021/03/16 04:08:51;;;;;;;2.55;2.10;;;3.30;99.90;;;;;;5000926;28;20211;-80
2021/03/16 04:11:20;;;;;;;4.72;2.63;;;3.30;99.90;;;;;;5000155;28;20222;-79
2021/03/16 04:13:47;;;;;;;3.50;2.72;;;3.30;99.90;;;;;;4999806;28;20215;-80
2021/03/16 04:16:14;;;;;;;4.40;3.30;;;3.30;99.90;;;;;;4999842;28;20209;-79
2021/03/16 04:18:41;;;;;;;3.08;1.90;;;3.30;99.90;;;;;;5000255;28;20210;-79
2021/03/16 04:21:07;;;;;;;2.47;2.28;;;3.30;99.90;;;;;;4999882;28;20228;-79
2021/03/16 04:23:34;;;;;;;9.95;2.70;;;3.40;99.90;;;;;;4999828;28;20663;-79
2021/03/16 04:26:00;;;;;;;1.77;1.50;;;3.30;99.90;;;;;;5001882;28;20211;-79
2021/03/16 04:28:27;;;;;;;3.22;1.95;;;3.30;99.90;;;;;;5002551;28;20213;-80
2021/03/16 04:30:54;;;;;;;3.05;2.65;;;3.30;99.90;;;;;;5003823;28;20274;-79
2021/03/16 04:33:20;;;;;;;2.08;1.92;;;3.20;99.90;;;;;;5003500;28;20218;-79
2021/03/16 04:35:46;;;;;;;2.25;1.85;;;3.20;99.90;;;;;;5003173;28;20212;-79
2021/03/16 04:38:13;;;;;;;1.90;1.77;;;3.10;99.90;;;;;;5000682;28;20203;-79
2021/03/16 04:40:40;;;;;;;6.53;2.40;;;3.20;99.90;;;;;;4999054;28;20239;-79
2021/03/16 04:43:06;;;;;;;1.48;1.38;;;3.20;99.90;;;;;;4999469;28;20212;-79
2021/03/16 04:45:33;;;;;;;2.60;1.42;;;3.20;99.90;;;;;;4999873;28;20268;-79
2021/03/16 04:48:00;;;;;;;4.18;2.00;;;3.30;99.90;;;;;;4999125;28;20258;-79
2021/03/16 04:50:26;;;;;;;1.95;1.80;;;3.30;99.90;;;;;;4999896;28;20228;-79
2021/03/16 04:52:52;;;;;;;1.45;1.35;;;3.40;99.90;;;;;;4999060;28;20224;-79
2021/03/16 04:55:19;;;;;;;1.00;1.00;;;3.40;99.90;;;;;;4999420;28;20211;-79
2021/03/16 04:57:45;;;;;;;3.72;2.05;;;3.30;99.90;;;;;;4999560;28;20218;-79
2021/03/16 05:00:12;;;;;;;4.00;1.77;;;3.30;99.90;;;;;;4999474;28;20724;-80
2021/03/16 05:02:40;;;;;;;2.80;1.30;;;3.30;99.90;;;;;;4999157;28;20214;-79
2021/03/16 05:05:07;;;;;;;1.30;1.20;;;3.30;99.90;;;;;;4998802;28;20678;-79
2021/03/16 05:07:33;;;;;;;1.77;1.35;;;3.30;99.90;;;;;;4999280;28;20290;-79
2021/03/16 05:10:00;;;;;;;1.85;1.75;;;3.30;99.90;;;;;;4998857;28;20231;-79
2021/03/16 05:12:26;;;;;;;2.42;1.75;;;3.20;99.90;;;;;;4998985;28;20209;-79
2021/03/16 05:14:52;;;;;;;3.35;2.30;;;3.20;99.90;;;;;;4999304;28;20215;-79
2021/03/16 05:17:19;;;;;;;2.33;1.35;;;3.30;99.90;;;;;;4999143;28;20212;-79
2021/03/16 05:19:46;;;;;;;7.13;1.80;;;3.30;99.90;;;;;;4998661;28;20711;-80
2021/03/16 05:22:12;;;;;;;7.57;2.35;;;3.20;99.90;;;;;;4998197;28;20231;-79
2021/03/16 05:24:38;;;;;;;1.98;1.88;;;3.30;99.90;;;;;;4998938;28;20222;-79
2021/03/16 05:27:05;;;;;;;2.60;1.73;;;3.30;99.90;;;;;;4998999;28;20572;-79
2021/03/16 05:29:31;;;;;;;3.20;1.52;;;3.30;99.90;;;;;;4998853;28;20216;-79
2021/03/16 05:31:58;;;;;;;5.38;4.05;;;3.20;99.90;;;;;;4998494;28;20204;-79
2021/03/16 05:34:24;;;;;;;3.28;2.08;;;3.20;99.90;;;;;;4997928;28;20218;-79
2021/03/16 05:36:51;;;;;;;2.40;2.20;;;3.20;99.90;;;;;;4998533;28;20201;-79
2021/03/16 05:39:18;;;;;;;3.65;1.75;;;3.20;99.90;;;;;;4998148;28;20214;-79
2021/03/16 05:41:45;;;;;;;4.75;1.60;;;3.20;99.90;;;;;;4998844;28;20720;-79
2021/03/16 05:44:12;;;;;;;4.63;2.13;;;3.20;99.90;;;;;;4999214;28;20214;-79
2021/03/16 05:46:39;;;;;;;4.40;2.08;;;3.20;99.90;;;;;;4998110;28;20279;-79
2021/03/16 05:49:08;;;;;;;1.80;1.65;;;3.30;99.90;;;;;;4998760;28;20208;-79
2021/03/16 05:51:35;;;;;;;6.60;2.25;;;3.30;99.90;;;;;;4998672;28;20225;-80
2021/03/16 05:54:03;;;;;;;2.38;2.05;;;3.40;99.90;;;;;;4999206;28;20214;-80
2021/03/16 05:56:31;;;;;;;5.82;2.22;;;3.40;99.90;;;;;;4997985;28;20693;-80
2021/03/16 05:58:58;;;;;;;4.72;1.67;;;3.50;99.90;;;;;;4998922;28;20320;-80
2021/03/16 06:01:25;;;;;;;2.97;1.75;;;3.50;99.90;;;;;;4998255;28;20251;-79
2021/03/16 06:03:51;;;;;;;4.78;1.65;;;3.40;99.90;;;;;;4999147;28;20209;-80
2021/03/16 06:06:17;;;;;;;5.25;2.60;;;3.40;99.90;;;;;;4999423;28;20208;-79
2021/03/16 06:08:43;;;;;;;2.88;2.63;;;3.40;99.90;;;;;;4999344;28;20204;-80
2021/03/16 06:11:11;;;;;;;4.80;1.85;;;3.40;99.90;;;;;;4998259;28;20224;-79
2021/03/16 06:13:49;;;;;;;3.17;2.38;;;3.50;99.90;;;;;;4999027;28;20200;-79
2021/03/16 06:16:16;;;;;;;2.92;1.60;;;3.50;99.90;;;;;;4999445;28;20219;-79
2021/03/16 06:18:43;;;;;;;1.67;1.45;;;3.50;99.90;;;;;;4998749;28;20243;-80
2021/03/16 06:21:10;;;;;;;4.43;4.03;;;3.50;99.90;;;;;;4998552;28;20285;-80
2021/03/16 06:23:38;;;;;;;2.25;1.65;;;3.60;99.90;;;;;;4998956;28;20850;-79
2021/03/16 06:26:11;;;;;;;2.40;2.20;;;3.50;99.90;;;;;;4998177;28;20205;-80
2021/03/16 06:28:39;;;;;;;2.83;2.58;;;3.50;99.90;;;;;;4997982;28;20279;-80
2021/03/16 06:31:05;;;;;;;3.05;2.75;;;3.60;99.90;;;;;;4998907;28;20246;-79
2021/03/16 06:33:33;;;;;;;7.75;3.60;;;3.60;99.90;;;;;;4998569;28;20303;-80
2021/03/16 06:36:00;;;;;;;3.22;2.70;;;3.60;99.90;;;;;;4998710;28;20217;-79
2021/03/16 06:38:29;;;;;;;3.25;2.92;;;3.60;99.90;;;;;;4998336;28;20219;-79
2021/03/16 06:40:57;;;;;;;4.15;2.70;;;3.60;99.90;;;;;;4998859;28;20233;-80
2021/03/16 06:43:24;;;;;;;2.65;2.45;;;3.60;99.90;;;;;;4998229;28;20215;-79
2021/03/16 06:45:53;;;;;;;4.35;2.30;;;3.50;99.90;;;;;;4998342;28;20204;-79
2021/03/16 06:48:20;;;;;;;2.75;2.50;;;3.60;99.90;;;;;;4998047;28;20207;-79
2021/03/16 06:50:47;;;;;;;4.75;2.15;;;3.60;99.90;;;;;;4999048;28;20744;-79
2021/03/16 06:53:15;;;;;;;5.22;2.28;;;3.70;99.90;;;;;;5001691;28;20246;-79
2021/03/16 06:55:51;;;;;;;3.72;2.78;;;3.60;99.90;;;;;;5001969;28;20212;-79
2021/03/16 06:58:23;;;;;;;1.92;1.75;;;3.70;99.90;;;;;;5002538;28;20218;-79
2021/03/16 07:00:49;;;;;;;3.67;2.35;;;3.60;99.90;;;;;;5001844;28;20244;-80
2021/03/16 07:03:17;;;;;;;4.72;2.55;;;3.60;99.90;;;;;;5001737;28;20207;-79
2021/03/16 07:05:44;;;;;;;2.97;2.70;;;3.70;99.90;;;;;;5001853;28;20252;-79
2021/03/16 07:08:13;;;;;;;7.75;4.13;;;3.70;99.90;;;;;;5001638;28;20206;-79
2021/03/16 07:10:41;;;;;;;3.25;2.45;;;3.70;99.90;;;;;;5001382;28;20676;-80
2021/03/16 07:13:10;;;;;;;5.57;2.80;;;3.70;99.90;;;;;;5001105;28;20211;-81
2021/03/16 07:15:39;;;;;;;7.50;3.08;;;3.70;99.90;;;;;;5003132;28;20208;-82
2021/03/16 07:18:09;;;;;;;3.92;1.95;;;3.70;99.90;;;;;;5010468;28;20224;-80
2021/03/16 07:20:37;;;;;;;3.72;2.13;;;3.70;99.90;;;;;;5008958;28;20222;-80
2021/03/16 07:23:07;;;;;;;4.40;2.45;;;3.70;99.90;;;;;;5020459;28;20202;-80
2021/03/16 07:25:34;;;;;;;6.72;2.75;;;3.60;99.90;;;;;;5023989;28;20209;-79
2021/03/16 07:28:03;;;;;;;7.55;3.00;;;3.50;99.90;;;;;;5025038;28;20225;-81
2021/03/16 07:30:30;;;;;;;4.38;2.63;;;3.40;99.90;;;;;;5026124;28;20236;-80
2021/03/16 07:32:56;;;;;;;8.77;3.30;;;3.30;99.90;;;;;;5027212;28;20211;-80
2021/03/16 07:35:23;;;;;;;4.85;3.38;;;3.20;99.90;;;;;;5028415;28;20209;-79
2021/03/16 07:37:51;;;;;;;5.50;2.65;;;3.30;99.90;;;;;;5027069;28;20211;-79
2021/03/16 07:40:18;;;;;;;5.43;3.20;;;3.10;99.90;;;;;;5025523;28;20226;-80
2021/03/16 07:42:46;;;;;;;5.10;3.72;;;3.10;99.90;;;;;;5024778;28;20242;-80
2021/03/16 07:45:24;;;;;;;4.43;4.03;;;3.00;99.90;;;;;;5020975;28;20215;-79
2021/03/16 07:47:50;;;;;;;3.33;2.65;;;3.10;99.90;;;;;;5012538;28;20207;-79
2021/03/16 07:50:17;;;;;;;5.57;3.28;;;3.20;99.90;;;;;;5018034;28;20216;-80
2021/03/16 07:52:45;;;;;;;4.72;1.95;;;3.30;99.90;;;;;;5009745;28;20282;-79
2021/03/16 07:55:23;;;;;;;2.38;2.17;;;3.30;99.90;;;;;;5015069;28;20211;-80
2021/03/16 07:57:49;;;;;;;10.45;2.55;;;3.40;99.90;;;;;;5012524;28;20210;-80
2021/03/16 08:00:27;;;;;;;3.08;1.73;;;3.50;99.90;;;;;;5013651;28;20224;-79
2021/03/16 08:02:57;;;;;;;2.88;2.50;;;3.70;99.90;;;;;;5006827;28;20226;-80
2021/03/16 08:05:24;;;;;;;3.40;2.63;;;3.80;99.90;;;;;;5011537;28;20198;-80
2021/03/16 08:07:50;;;;;;;4.32;3.40;;;3.90;99.90;;;;;;5009085;28;20202;-79
2021/03/16 08:10:27;;;;;;;3.58;2.40;;;4.00;99.90;;;;;;5016912;28;20233;-79
2021/03/16 08:13:00;;;;;;;4.25;2.80;;;4.10;99.90;;;;;;5008964;28;20206;-80
2021/03/16 08:15:27;;;;;;;5.05;2.42;;;4.20;99.90;;;;;;5014749;28;20210;-79
2021/03/16 08:17:58;;;;;;;3.47;2.97;;;4.20;99.90;;;;;;5009911;28;20200;-79
2021/03/16 08:20:26;;;;;;;7.45;3.47;;;4.30;99.90;;;;;;5033085;28;20248;-81
2021/03/16 08:23:04;;;;;;;7.55;2.97;;;4.40;99.90;;;;;;5025635;28;20273;-82
2021/03/16 08:25:45;;;;;;;3.63;2.45;;;4.40;99.90;;;;;;5026325;28;20209;-82
2021/03/16 08:28:13;;;;;;;6.05;2.83;;;4.50;99.90;;;;;;5003193;28;20199;-82
2021/03/16 08:31:08;;;;;;;5.10;3.00;;;4.60;99.90;;;;;;5007316;28;20226;-83
2021/03/16 08:33:51;;;;;;;10.80;4.30;;;4.70;99.90;;;;;;4950373;29;20216;-83
2021/03/16 08:49:17;;;;;;;;;;;;;;;;;;;;;
2021/03/16 08:58:40;;;;;;;4.32;3.42;;;4.30;99.90;;;;;;4728761;30;20232;-83
2021/03/16 09:01:09;;;;;;;3.65;2.92;;;4.30;99.90;;;;;;4810273;29;20244;-81
2021/03/16 09:03:37;;;;;;;2.75;2.40;;;4.30;99.90;;;;;;4849373;29;20222;-82
2021/03/16 09:06:05;;;;;;;6.00;2.90;;;4.30;99.90;;;;;;4920541;28;20276;-81
2021/03/16 09:08:31;;;;;;;3.08;2.88;;;4.30;99.90;;;;;;4986300;28;20214;-81
2021/03/16 09:10:57;;;;;;;4.68;3.30;;;4.40;99.90;;;;;;4984525;28;20297;-81
2021/03/16 09:13:27;;;;;;;8.63;4.32;;;4.50;99.90;;;;;;5004537;28;20208;-81
2021/03/16 09:15:54;;;;;;;2.92;2.70;;;4.40;99.90;;;;;;5006762;28;20238;-81
2021/03/16 09:18:22;;;;;;;4.35;3.53;;;4.30;99.90;;;;;;5006982;28;20234;-81
2021/03/16 09:20:49;;;;;;;4.80;4.32;;;4.30;99.90;;;;;;5006941;28;20231;-80
2021/03/16 09:23:16;;;;;;;2.42;2.25;;;4.40;99.90;;;;;;5007936;28;20247;-82
2021/03/16 09:25:44;;;;;;;4.45;2.92;;;4.30;99.90;;;;;;5008458;28;20230;-82
2021/03/16 09:28:13;;;;;;;5.25;4.00;;;4.30;99.90;;;;;;5004535;28;20222;-81
2021/03/16 09:30:42;;;;;;;6.38;2.50;;;4.20;99.90;;;;;;5003521;28;20329;-83
2021/03/16 09:33:11;;;;;;;7.25;4.78;;;4.20;99.90;;;;;;5004730;28;20204;-81
2021/03/16 09:35:38;;;;;;;7.80;4.00;;;4.30;99.90;;;;;;5006537;28;20238;-82
2021/03/16 09:38:07;;;;;;;5.32;3.70;;;4.20;99.90;;;;;;5005192;28;20256;-82
2021/03/16 09:40:38;;;;;;;4.63;3.80;;;4.20;99.90;;;;;;5007513;28;20305;-82
2021/03/16 09:43:15;;;;;;;4.93;4.35;;;4.00;99.90;;;;;;5005575;28;20222;-82
2021/03/16 09:45:51;;;;;;;5.10;4.30;;;3.70;99.90;;;;;;5007329;28;20224;-80
2021/03/16 09:48:18;;;;;;;6.47;4.38;;;3.60;99.90;;;;;;5008010;28;20286;-81
2021/03/16 09:50:45;;;;;;;4.20;3.70;;;3.30;99.90;;;;;;5007300;28;20301;-83
2021/03/16 09:53:14;;;;;;;4.80;3.58;;;3.30;99.90;;;;;;5006408;28;20218;-81
2021/03/16 09:55:42;;;;;;;6.03;3.75;;;3.10;99.90;;;;;;5007491;28;20273;-81
2021/03/16 09:58:20;;;;;;;6.95;4.43;;;3.10;99.90;;;;;;5008153;28;20230;-80
2021/03/16 10:00:48;;;;;;;5.90;3.55;;;3.10;99.90;;;;;;5007987;28;20252;-82
2021/03/16 10:03:17;;;;;;;11.23;4.18;;;3.20;99.90;;;;;;5011282;28;20220;-84
2021/03/16 10:05:43;;;;;;;8.73;5.63;;;3.30;99.90;;;;;;5008667;28;20281;-83
2021/03/16 10:08:10;;;;;;;9.68;5.55;;;3.40;99.90;;;;;;5000784;28;20234;-81
2021/03/16 10:10:38;;;;;;;5.35;4.82;;;3.60;99.90;;;;;;5001612;28;20645;-81
2021/03/16 10:13:06;;;;;;;7.07;5.57;;;3.70;99.90;;;;;;5000175;28;20207;-82
2021/03/16 10:15:36;;;;;;;6.75;5.47;;;4.00;99.90;;;;;;5001207;28;20617;-81
2021/03/16 10:18:04;;;;;;;5.40;4.95;;;4.30;99.90;;;;;;5000331;28;20234;-81
2021/03/16 10:20:33;;;;;;;6.18;5.68;;;4.60;99.90;;;;;;4999554;28;20233;-81
2021/03/16 10:23:01;;;;;;;5.35;4.85;;;4.60;99.90;;;;;;4999820;28;20314;-82
2021/03/16 10:25:29;;;;;;;10.85;4.13;;;4.60;99.90;;;;;;5000818;28;20207;-81
2021/03/16 10:28:01;;;;;;;7.78;5.25;;;4.60;99.90;;;;;;5005858;28;20217;-83
2021/03/16 10:30:34;;;;;;;5.07;4.68;;;4.50;99.90;;;;;;5002868;28;20254;-81
2021/03/16 10:33:00;;;;;;;8.98;5.70;;;4.50;99.90;;;;;;5003095;28;20215;-82
2021/03/16 10:35:28;;;;;;;7.45;5.10;;;4.50;99.90;;;;;;5004783;28;20590;-81
2021/03/16 10:37:57;;;;;;;4.78;4.07;;;4.40;99.90;;;;;;5004685;28;20213;-82
2021/03/16 10:40:24;;;;;;;5.13;4.70;;;4.30;99.90;;;;;;5003655;28;20781;-81
2021/03/16 10:42:50;;;;;;;5.90;5.22;;;4.30;99.90;;;;;;5003296;28;20223;-81
2021/03/16 10:45:17;;;;;;;5.40;4.22;;;4.30;99.90;;;;;;5003965;28;20281;-81
2021/03/16 10:47:44;;;;;;;8.07;4.85;;;4.40;99.90;;;;;;5002791;28;20343;-80
2021/03/16 10:50:11;;;;;;;8.30;6.05;;;4.50;99.90;;;;;;5003174;28;20239;-81
2021/03/16 10:52:38;;;;;;;9.35;4.28;;;4.60;99.90;;;;;;5003121;28;20203;-81
2021/03/16 10:55:05;;;;;;;5.38;4.80;;;4.80;99.90;;;;;;5003483;28;20214;-80
2021/03/16 10:57:32;;;;;;;6.55;4.68;;;5.00;99.90;;;;;;5009532;28;20219;-81
2021/03/16 10:59:59;;;;;;;5.55;3.38;;;5.10;99.90;;;;;;5002779;28;20235;-81
2021/03/16 11:02:25;;;;;;;8.15;5.28;;;5.30;99.90;;;;;;5002282;28;20229;-80
2021/03/16 11:04:52;;;;;;;7.65;3.97;;;5.50;99.90;;;;;;5004458;28;20207;-81
2021/03/16 11:07:18;;;;;;;5.97;4.63;;;5.40;99.90;;;;;;5003433;28;20261;-82
2021/03/16 11:09:45;;;;;;;8.65;3.90;;;5.50;99.90;;;;;;5002632;28;20234;-81
2021/03/16 11:12:11;;;;;;;11.55;5.70;;;5.60;99.90;;;;;;5003255;28;20203;-82
2021/03/16 11:14:37;;;;;;;7.88;6.35;;;5.60;99.90;;;;;;5003082;28;20220;-82
2021/03/16 11:17:04;;;;;;;6.93;4.85;;;5.80;99.90;;;;;;5003275;28;20212;-82
2021/03/16 11:19:30;;;;;;;4.43;2.90;;;5.70;99.90;;;;;;5008879;28;20207;-81
2021/03/16 11:21:57;;;;;;;7.35;4.60;;;5.40;99.90;;;;;;5009008;28;20233;-82
2021/03/16 11:24:27;;;;;;;9.20;4.28;;;5.30;99.90;;;;;;5007861;28;20208;-82
2021/03/16 11:26:54;;;;;;;4.97;3.58;;;5.40;99.90;;;;;;5004675;28;20215;-83
2021/03/16 11:29:23;;;;;;;8.77;4.50;;;5.40;99.90;;;;;;5002391;28;20215;-82
2021/03/16 11:31:54;;;;;;;7.45;3.63;;;5.50;99.90;;;;;;5006429;28;20207;-83
2021/03/16 11:37:35;;;;;;;6.65;3.78;;;5.70;99.90;;;;;;5008348;28;20298;-82
2021/03/16 11:40:02;;;;;;;6.25;4.68;;;5.60;99.90;;;;;;4969946;28;20225;-82
2021/03/16 11:42:33;;;;;;;6.03;3.47;;;5.50;99.90;;;;;;5010510;28;20238;-83
2021/03/16 11:45:00;;;;;;;6.78;3.47;;;5.50;99.90;;;;;;5008786;28;20218;-82
2021/03/16 11:47:37;;;;;;;;;;;;;;;;;;;;;
2021/03/16 11:50:13;;;;;;;6.07;2.35;;;5.30;99.90;;;;;;5008735;28;20235;-82
2021/03/16 11:53:11;;;;;;;5.78;2.83;;;5.20;99.90;;;;;;5004629;28;20665;-80
2021/03/16 11:56:03;;;;;;;;;;;;;;;;;;;;;
2021/03/16 11:58:41;;;;;;;3.05;2.45;;;4.90;99.90;;;;;;5008069;28;20231;-82
2021/03/16 12:01:25;;;;;;;5.68;3.00;;;4.90;99.90;;;;;;5016544;28;20257;-81
2021/03/16 12:03:53;;;;;;;9.00;2.95;;;4.80;99.90;;;;;;5016851;28;20233;-82
2021/03/16 12:06:27;;;;;;;5.93;2.60;;;4.90;99.90;;;;;;5010084;28;20210;-82
2021/03/16 12:09:10;;;;;;;6.18;4.47;;;5.00;99.90;;;;;;5006794;28;20215;-82
2021/03/16 12:11:38;;;;;;;6.20;3.70;;;5.10;99.90;;;;;;5004020;28;20329;-82
2021/03/16 12:20:18;;;;;;;8.55;4.10;;;5.60;99.90;;;;;;5007502;28;20283;-83
2021/03/16 12:22:55;;;;;;;7.57;2.53;;;5.80;99.90;;;;;;5009989;28;20223;-85
2021/03/16 12:25:26;;;;;;;3.95;2.42;;;6.00;99.90;;;;;;5007134;28;20248;-82
2021/03/16 12:28:00;;;;;;;4.25;2.67;;;6.10;99.90;;;;;;5004637;28;20219;-82
2021/03/16 12:30:35;;;;;;;4.05;2.40;;;6.20;99.90;;;;;;5007196;28;20235;-83
2021/03/16 12:33:01;;;;;;;2.72;2.30;;;6.30;99.90;;;;;;5007066;28;20209;-82
2021/03/16 12:35:37;;;;;;;4.82;2.80;;;6.30;99.90;;;;;;5005943;28;20271;-82
2021/03/16 12:38:05;;;;;;;8.73;3.90;;;6.30;99.90;;;;;;5005531;28;20207;-83
2021/03/16 12:40:33;;;;;;;3.10;2.63;;;6.50;99.90;;;;;;5008154;28;20220;-82
2021/03/16 12:42:59;;;;;;;3.00;2.30;;;6.50;99.90;;;;;;5006820;28;20318;-82
2021/03/16 12:45:30;;;;;;;4.63;3.15;;;6.40;99.50;;;;;;5005386;28;20211;-82
2021/03/16 12:47:58;;;;;;;3.42;2.72;;;6.70;99.90;;;;;;5006976;28;20207;-82
2021/03/16 12:50:37;;;;;;;3.35;2.42;;;7.30;97.70;;;;;;5007541;28;20270;-81
2021/03/16 12:53:18;;;;;;;4.40;2.53;;;7.90;96.70;;;;;;5005890;28;20204;-83
2021/03/16 12:55:45;;;;;;;7.82;2.90;;;8.70;95.40;;;;;;5009228;28;20199;-82
2021/03/16 12:58:15;;;;;;;5.75;2.88;;;9.10;94.40;;;;;;5007066;28;20255;-82
2021/03/16 13:00:49;;;;;;;1.75;1.63;;;9.00;92.50;;;;;;5007110;28;20259;-84
2021/03/16 13:03:15;;;;;;;5.90;3.20;;;8.80;93.10;;;;;;5007811;28;20234;-82
2021/03/16 13:05:41;;;;;;;3.03;2.25;;;8.50;92.70;;;;;;5006029;28;20669;-82
2021/03/16 13:08:09;;;;;;;3.42;3.05;;;8.40;92.50;;;;;;5003285;28;20211;-83
2021/03/16 13:10:36;;;;;;;3.28;2.00;;;8.20;92.10;;;;;;5004010;28;20333;-83
2021/03/16 13:13:05;;;;;;;2.60;2.17;;;8.00;92.70;;;;;;5002856;28;20214;-83
2021/03/16 13:15:35;;;;;;;4.60;2.75;;;8.00;93.00;;;;;;5002800;28;20208;-84
2021/03/16 13:18:02;;;;;;;2.22;2.08;;;7.80;92.70;;;;;;5001624;28;20223;-83
2021/03/16 13:20:30;;;;;;;2.17;1.98;;;7.80;92.80;;;;;;5002735;28;20230;-83
2021/03/16 13:22:56;;;;;;;3.05;2.00;;;7.70;91.80;;;;;;5002214;28;20274;-81
2021/03/16 13:25:23;;;;;;;2.22;1.25;;;7.50;91.90;;;;;;5004834;28;20262;-81
2021/03/16 13:27:49;;;;;;;2.85;1.92;;;7.50;91.60;;;;;;5005297;28;20215;-81
2021/03/16 13:30:20;;;;;;;2.80;2.00;;;7.70;91.70;;;;;;5003010;28;20266;-83
2021/03/16 13:32:46;;;;;;;5.22;3.30;;;7.80;92.00;;;;;;5002855;28;20215;-83
2021/03/16 13:35:13;;;;;;;2.22;1.80;;;8.10;92.10;;;;;;5002945;28;20211;-82
2021/03/16 13:37:47;;;;;;;2.72;2.53;;;8.20;91.60;;;;;;5005885;28;20275;-83